createdAt,value
2023-04-16T00:00:37.413Z,65.77
2023-04-16T00:03:05.331Z,66.60
2023-04-16T00:05:33.145Z,65.33
2023-04-16T00:08:00.754Z,65.11
2023-04-16T00:10:28.333Z,65.41
2023-04-16T00:12:55.817Z,65.88
2023-04-16T00:15:23.682Z,65.02
2023-04-16T00:17:51.250Z,65.96
2023-04-16T00:20:20.331Z,65.55
2023-04-16T00:22:47.816Z,66.37
2023-04-16T00:25:15.489Z,66.18
2023-04-16T00:27:43.004Z,65.30
2023-04-16T00:30:10.899Z,65.90
2023-04-16T00:32:38.435Z,66.72
2023-04-16T00:35:06.727Z,66.99
2023-04-16T00:37:34.196Z,65.63
2023-04-16T00:40:01.918Z,64.97
2023-04-16T00:42:29.406Z,64.75
2023-04-16T00:44:56.889Z,65.87
2023-04-16T00:47:25.321Z,65.12
2023-04-16T00:49:52.879Z,66.05
2023-04-16T00:52:20.356Z,66.15
2023-04-16T00:54:48.543Z,66.02
2023-04-16T00:57:16.398Z,67.62
2023-04-16T00:59:43.969Z,66.28
2023-04-16T01:02:12.551Z,67.18
2023-04-16T01:04:40.200Z,65.91
2023-04-16T01:07:07.683Z,65.64
2023-04-16T01:09:35.418Z,64.97
2023-04-16T01:12:04.171Z,64.81
2023-04-16T01:14:36.109Z,65.11
2023-04-16T01:17:04.484Z,65.93
2023-04-16T01:19:32.272Z,65.95
2023-04-16T01:21:59.727Z,65.67
2023-04-16T01:24:27.260Z,65.82
2023-04-16T01:26:54.731Z,66.38
2023-04-16T01:29:22.204Z,65.97
2023-04-16T01:31:51.052Z,66.03
2023-04-16T01:34:36.740Z,67.47
2023-04-16T01:37:04.341Z,67.00
2023-04-16T01:39:31.856Z,67.12
2023-04-16T01:41:59.326Z,66.05
2023-04-16T01:44:26.859Z,66.09
2023-04-16T01:46:54.546Z,66.18
2023-04-16T01:49:23.357Z,66.98
2023-04-16T01:51:51.508Z,67.23
2023-04-16T01:54:18.997Z,66.93
2023-04-16T01:56:46.842Z,66.27
2023-04-16T01:59:14.354Z,66.62
2023-04-16T02:01:43.220Z,65.48
2023-04-16T02:04:11.930Z,65.81
2023-04-16T02:06:39.956Z,65.92
2023-04-16T02:09:07.681Z,65.93
2023-04-16T02:11:35.349Z,66.28
2023-04-16T02:14:02.867Z,66.28
2023-04-16T02:16:31.119Z,66.38
2023-04-16T02:19:21.764Z,65.59
2023-04-16T02:21:51.131Z,65.42
2023-04-16T02:24:19.916Z,66.64
2023-04-16T02:26:48.215Z,65.99
2023-04-16T02:29:19.404Z,65.30
2023-04-16T02:31:53.031Z,65.96
2023-04-16T02:34:21.081Z,65.48
2023-04-16T02:36:48.887Z,65.97
2023-04-16T02:39:17.254Z,65.71
2023-04-16T02:41:44.808Z,65.98
2023-04-16T02:44:12.295Z,66.21
2023-04-16T02:46:39.846Z,66.16
2023-04-16T02:49:07.479Z,66.88
2023-04-16T02:51:35.160Z,66.75
2023-04-16T02:54:03.108Z,66.26
2023-04-16T02:56:31.620Z,67.83
2023-04-16T02:58:59.137Z,67.32
2023-04-16T03:01:28.396Z,67.50
2023-04-16T03:03:56.414Z,66.66
2023-04-16T03:06:24.037Z,66.23
2023-04-16T03:08:51.587Z,67.45
2023-04-16T03:11:20.248Z,66.70
2023-04-16T03:13:47.845Z,66.39
2023-04-16T03:16:15.629Z,66.86
2023-04-16T03:18:43.308Z,67.00
2023-04-16T03:21:11.046Z,67.63
2023-04-16T03:23:38.848Z,66.41
2023-04-16T03:26:06.446Z,66.99
2023-04-16T03:28:34.138Z,67.34
2023-04-16T03:31:01.660Z,67.61
2023-04-16T03:33:29.287Z,67.06
2023-04-16T03:35:58.289Z,66.87
2023-04-16T03:38:27.953Z,66.32
2023-04-16T03:40:57.632Z,67.04
2023-04-16T03:43:25.556Z,68.70
2023-04-16T03:45:53.292Z,68.98
2023-04-16T03:48:23.920Z,68.27
2023-04-16T03:50:51.476Z,69.02
2023-04-16T03:53:20.670Z,68.74
2023-04-16T03:55:52.972Z,69.44
2023-04-16T03:58:21.754Z,68.58
2023-04-16T04:00:49.329Z,68.75
2023-04-16T04:03:18.607Z,68.04
2023-04-16T04:05:48.721Z,68.20
2023-04-16T04:08:21.182Z,67.77
2023-04-16T04:10:48.777Z,69.14
2023-04-16T04:13:16.468Z,69.17
2023-04-16T04:15:44.938Z,71.49
2023-04-16T04:18:12.490Z,69.84
2023-04-16T04:20:41.326Z,70.71
2023-04-16T04:23:09.487Z,70.02
2023-04-16T04:25:37.030Z,70.42
2023-04-16T04:28:04.803Z,68.79
2023-04-16T04:30:32.302Z,69.00
2023-04-16T04:32:59.960Z,69.52
2023-04-16T04:35:28.271Z,69.11
2023-04-16T04:37:56.113Z,69.01
2023-04-16T04:40:23.612Z,68.39
2023-04-16T04:42:53.182Z,68.17
2023-04-16T04:45:25.571Z,69.84
2023-04-16T04:47:54.556Z,69.28
2023-04-16T04:50:22.366Z,68.07
2023-04-16T04:52:49.880Z,67.63
2023-04-16T04:55:17.465Z,67.80
2023-04-16T04:57:44.969Z,66.94
2023-04-16T05:00:12.978Z,67.79
2023-04-16T05:02:48.502Z,67.13
2023-04-16T05:05:16.305Z,68.61
2023-04-16T05:07:44.735Z,68.59
2023-04-16T05:10:12.318Z,68.15
2023-04-16T05:12:40.069Z,69.26
2023-04-16T05:15:08.491Z,68.23
2023-04-16T05:17:35.986Z,67.97
2023-04-16T05:20:03.658Z,68.07
2023-04-16T05:22:31.170Z,67.66
2023-04-16T05:24:58.679Z,67.86
2023-04-16T05:27:26.135Z,69.56
2023-04-16T05:29:53.685Z,68.79
2023-04-16T05:32:21.175Z,67.43
2023-04-16T05:34:48.678Z,69.25
2023-04-16T05:37:16.172Z,68.71
2023-04-16T05:39:43.693Z,68.12
2023-04-16T05:42:11.180Z,69.02
2023-04-16T05:44:38.812Z,67.90
2023-04-16T05:47:09.194Z,67.21
2023-04-16T05:49:40.010Z,67.17
2023-04-16T05:52:07.481Z,66.66
2023-04-16T05:54:35.344Z,67.16
2023-04-16T05:57:03.719Z,67.23
2023-04-16T05:59:31.301Z,68.23
2023-04-16T06:01:58.894Z,67.60
2023-04-16T06:04:26.511Z,68.41
2023-04-16T06:06:53.991Z,68.20
2023-04-16T06:09:21.529Z,67.71
2023-04-16T06:11:49.373Z,69.01
2023-04-16T06:14:16.986Z,68.83
2023-04-16T06:16:44.492Z,68.88
2023-04-16T06:19:12.148Z,68.95
2023-04-16T06:21:39.763Z,68.20
2023-04-16T06:24:07.361Z,67.46
2023-04-16T06:26:34.832Z,67.51
2023-04-16T06:29:02.456Z,67.30
2023-04-16T06:31:30.885Z,66.52
2023-04-16T06:33:58.436Z,68.54
2023-04-16T06:36:27.476Z,68.05
2023-04-16T06:38:55.060Z,67.29
2023-04-16T06:41:25.343Z,67.78
2023-04-16T06:43:52.872Z,67.83
2023-04-16T06:46:20.364Z,68.31
2023-04-16T06:48:47.898Z,68.35
2023-04-16T06:51:15.444Z,67.23
2023-04-16T06:53:42.977Z,67.26
2023-04-16T06:56:10.756Z,66.83
2023-04-16T06:58:38.231Z,66.47
2023-04-16T07:01:05.883Z,66.00
2023-04-16T07:03:33.468Z,66.26
2023-04-16T07:06:01.184Z,66.76
2023-04-16T07:08:28.808Z,66.79
2023-04-16T07:10:56.339Z,66.59
2023-04-16T07:13:24.192Z,66.46
2023-04-16T07:15:51.739Z,66.44
2023-04-16T07:18:20.812Z,67.08
2023-04-16T07:20:48.706Z,66.53
2023-04-16T07:23:16.265Z,66.21
2023-04-16T07:25:44.515Z,66.46
2023-04-16T07:28:12.228Z,66.06
2023-04-16T07:30:39.744Z,66.93
2023-04-16T07:33:07.529Z,67.53
2023-04-16T07:35:35.671Z,68.39
2023-04-16T07:38:03.155Z,67.58
2023-04-16T07:40:30.679Z,66.94
2023-04-16T07:42:58.233Z,67.34
2023-04-16T07:45:25.770Z,66.05
2023-04-16T07:47:53.330Z,65.67
2023-04-16T07:50:20.888Z,65.29
2023-04-16T07:52:48.536Z,65.91
2023-04-16T07:55:16.113Z,66.25
2023-04-16T07:57:43.578Z,65.41
2023-04-16T08:00:11.760Z,65.34
2023-04-16T08:02:43.601Z,64.96
2023-04-16T08:05:12.483Z,65.17
2023-04-16T08:07:40.023Z,64.88
2023-04-16T08:10:08.540Z,65.38
2023-04-16T08:12:36.123Z,65.11
2023-04-16T08:15:03.861Z,66.15
2023-04-16T08:17:31.400Z,65.92
2023-04-16T08:19:58.939Z,65.69
2023-04-16T08:22:26.621Z,65.45
2023-04-16T08:24:54.237Z,65.80
2023-04-16T08:27:21.703Z,66.83
2023-04-16T08:29:49.306Z,65.76
2023-04-16T08:32:16.887Z,65.50
2023-04-16T08:34:44.419Z,65.66
2023-04-16T08:37:11.889Z,66.23
2023-04-16T08:39:39.426Z,66.06
2023-04-16T08:42:23.518Z,65.86
2023-04-16T08:44:58.154Z,66.06
2023-04-16T08:47:28.776Z,65.18
2023-04-16T08:49:58.835Z,66.24
2023-04-16T08:52:30.677Z,65.77
2023-04-16T08:55:11.891Z,65.47
2023-04-16T08:57:59.461Z,64.83
2023-04-16T09:00:28.368Z,64.86
2023-04-16T09:02:56.345Z,65.16
2023-04-16T09:05:25.743Z,65.97
2023-04-16T09:07:56.565Z,66.97
2023-04-16T09:10:26.898Z,65.56
2023-04-16T09:12:58.490Z,65.36
2023-04-16T09:15:26.483Z,65.49
2023-04-16T09:17:56.351Z,65.69
2023-04-16T09:20:23.936Z,65.19
2023-04-16T09:22:51.482Z,65.62
2023-04-16T09:25:22.560Z,65.47
2023-04-16T09:27:51.294Z,65.08
2023-04-16T09:30:23.016Z,64.75
2023-04-16T09:33:13.226Z,64.79
2023-04-16T09:35:52.561Z,65.07
2023-04-16T09:38:20.608Z,64.47
2023-04-16T09:40:48.188Z,64.16
2023-04-16T09:43:18.622Z,64.62
2023-04-16T09:45:53.847Z,64.38
2023-04-16T09:48:33.015Z,64.29
2023-04-16T09:51:01.188Z,64.12
2023-04-16T09:53:30.967Z,64.07
2023-04-16T09:56:04.845Z,64.09
2023-04-16T09:58:33.084Z,63.60
2023-04-16T10:01:12.140Z,63.31
2023-04-16T10:03:41.095Z,63.93
2023-04-16T10:06:19.623Z,64.84
2023-04-16T10:08:52.839Z,64.27
2023-04-16T10:11:21.271Z,64.00
2023-04-16T10:13:49.495Z,64.08
2023-04-16T10:16:17.897Z,64.40
2023-04-16T10:18:46.855Z,64.67
2023-04-16T10:21:16.221Z,64.46
2023-04-16T10:23:44.495Z,64.36
2023-04-16T10:26:12.322Z,64.32
2023-04-16T10:28:41.491Z,63.77
2023-04-16T10:31:09.949Z,64.13
2023-04-16T10:33:41.982Z,64.50
2023-04-16T10:36:24.749Z,64.30
2023-04-16T10:38:56.622Z,64.45
2023-04-16T10:41:26.707Z,64.02
2023-04-16T10:44:09.964Z,63.87
2023-04-16T10:46:40.584Z,64.26
2023-04-16T10:49:20.187Z,64.33
2023-04-16T10:51:57.653Z,64.20
2023-04-16T10:54:28.079Z,64.22
2023-04-16T10:57:20.490Z,65.25
2023-04-16T10:59:49.289Z,65.19
2023-04-16T11:02:19.216Z,65.49
2023-04-16T11:04:49.170Z,65.92
2023-04-16T11:07:34.988Z,64.74
2023-04-16T11:10:13.423Z,65.70
2023-04-16T11:12:48.485Z,64.87
2023-04-16T11:15:19.115Z,64.76
2023-04-16T11:17:50.783Z,65.58
2023-04-16T11:20:26.482Z,65.97
2023-04-16T11:22:57.211Z,65.60
2023-04-16T11:25:31.427Z,66.50
2023-04-16T11:27:59.114Z,66.26
2023-04-16T11:30:40.003Z,66.33
2023-04-16T11:33:11.952Z,67.14
2023-04-16T11:35:40.404Z,66.65
2023-04-16T11:38:07.967Z,66.32
2023-04-16T11:40:36.269Z,66.15
2023-04-16T11:43:14.751Z,66.65
2023-04-16T11:46:01.631Z,66.85
2023-04-16T11:48:53.039Z,68.21
2023-04-16T11:51:21.732Z,66.56
2023-04-16T11:53:54.088Z,67.19
2023-04-16T11:56:29.457Z,67.10
2023-04-16T11:59:12.698Z,66.24
2023-04-16T12:01:42.756Z,65.79
2023-04-16T12:04:10.647Z,65.58
2023-04-16T12:06:38.365Z,66.19
2023-04-16T12:09:27.536Z,67.29
2023-04-16T12:11:55.182Z,67.90
2023-04-16T12:14:23.598Z,67.17
2023-04-16T12:16:51.449Z,67.19
2023-04-16T12:19:19.250Z,67.64
2023-04-16T12:21:49.928Z,68.11
2023-04-16T12:24:20.831Z,67.40
2023-04-16T12:26:57.303Z,68.36
2023-04-16T12:29:28.017Z,68.29
2023-04-16T12:31:55.691Z,67.96
2023-04-16T12:34:30.648Z,67.28
2023-04-16T12:37:10.926Z,66.95
2023-04-16T12:39:38.405Z,67.14
2023-04-16T12:42:09.704Z,67.00
2023-04-16T12:44:37.271Z,67.15
2023-04-16T12:47:05.469Z,67.21
2023-04-16T12:49:33.194Z,66.84
2023-04-16T12:53:16.828Z,67.07
2023-04-16T12:55:45.375Z,66.85
2023-04-16T12:58:12.857Z,66.77
2023-04-16T13:00:40.472Z,66.61
2023-04-16T13:03:08.272Z,65.98
2023-04-16T13:05:36.019Z,65.72
2023-04-16T13:08:03.610Z,66.34
2023-04-16T13:10:31.140Z,66.24
2023-04-16T13:12:58.668Z,65.45
2023-04-16T13:15:26.255Z,65.96
2023-04-16T13:17:53.743Z,66.34
2023-04-16T13:20:23.860Z,65.53
2023-04-16T13:22:51.977Z,65.67
2023-04-16T13:25:19.584Z,65.53
2023-04-16T13:27:47.076Z,66.03
2023-04-16T13:30:14.969Z,67.35
2023-04-16T13:32:42.560Z,66.52
2023-04-16T13:35:11.777Z,66.44
2023-04-16T13:37:39.320Z,66.08
2023-04-16T13:40:08.437Z,66.79
2023-04-16T13:42:54.373Z,65.83
2023-04-16T13:45:22.028Z,66.16
2023-04-16T13:47:49.783Z,66.60
2023-04-16T13:50:20.362Z,66.33
2023-04-16T13:52:47.836Z,65.73
2023-04-16T13:55:19.028Z,66.65
2023-04-16T13:57:47.682Z,68.44
2023-04-16T14:00:16.701Z,68.31
2023-04-16T14:02:45.923Z,67.48
2023-04-16T14:05:13.783Z,67.60
2023-04-16T14:07:41.356Z,67.37
2023-04-16T14:10:09.601Z,66.68
2023-04-16T14:12:40.564Z,66.90
2023-04-16T14:15:09.656Z,66.45
2023-04-16T14:17:37.661Z,66.73
2023-04-16T14:20:06.787Z,66.20
2023-04-16T14:22:34.518Z,65.58
2023-04-16T14:25:02.120Z,66.40
2023-04-16T14:27:30.965Z,66.60
2023-04-16T14:29:58.652Z,66.72
2023-04-16T14:32:26.860Z,67.26
2023-04-16T14:34:54.709Z,68.12
2023-04-16T14:37:22.311Z,67.96
2023-04-16T14:39:50.635Z,68.09
2023-04-16T14:42:18.160Z,68.17
2023-04-16T14:44:45.824Z,67.75
2023-04-16T14:47:16.126Z,67.08
2023-04-16T14:49:43.665Z,66.68
2023-04-16T14:52:11.467Z,66.68
2023-04-16T14:54:38.972Z,66.86
2023-04-16T14:57:06.517Z,66.96
2023-04-16T14:59:34.098Z,67.28
2023-04-16T15:02:01.704Z,66.96
2023-04-16T15:04:30.172Z,67.74
2023-04-16T15:06:59.035Z,66.55
2023-04-16T15:09:27.471Z,66.95
2023-04-16T15:11:55.054Z,67.47
2023-04-16T15:14:22.628Z,67.09
2023-04-16T15:16:50.282Z,67.26
2023-04-16T15:19:17.926Z,67.17
2023-04-16T15:21:47.491Z,67.74
2023-04-16T15:24:16.180Z,67.86
2023-04-16T15:26:43.670Z,67.21
2023-04-16T15:29:11.801Z,67.47
2023-04-16T15:31:39.286Z,67.26
2023-04-16T15:34:07.240Z,67.98
2023-04-16T15:36:34.713Z,67.79
2023-04-16T15:39:02.276Z,67.22
2023-04-16T15:41:31.783Z,67.26
2023-04-16T15:43:59.299Z,67.20
2023-04-16T15:46:26.929Z,67.08
2023-04-16T15:48:54.438Z,66.96
2023-04-16T15:51:22.436Z,67.31
2023-04-16T15:53:50.461Z,67.57
2023-04-16T15:56:18.000Z,67.77
2023-04-16T15:58:45.589Z,67.57
2023-04-16T16:01:13.295Z,67.75
2023-04-16T16:03:41.021Z,68.02
2023-04-16T16:06:08.953Z,68.06
2023-04-16T16:08:38.111Z,68.41
2023-04-16T16:11:05.640Z,68.71
2023-04-16T16:13:33.136Z,68.40
2023-04-16T16:16:00.845Z,67.89
2023-04-16T16:18:29.366Z,68.48
2023-04-16T16:20:58.130Z,67.76
2023-04-16T16:23:25.926Z,67.94
2023-04-16T16:25:53.439Z,67.76
2023-04-16T16:28:21.148Z,68.02
2023-04-16T16:30:50.785Z,67.09
2023-04-16T16:33:18.292Z,67.09
2023-04-16T16:35:45.813Z,67.84
2023-04-16T16:38:13.368Z,68.33
2023-04-16T16:40:40.930Z,67.63
2023-04-16T16:43:08.531Z,67.42
2023-04-16T16:45:36.172Z,67.75
2023-04-16T16:48:03.960Z,67.46
2023-04-16T16:50:32.800Z,67.07
2023-04-16T16:53:00.681Z,67.04
2023-04-16T16:55:28.240Z,67.66
2023-04-16T16:57:56.098Z,67.47
2023-04-16T17:00:23.613Z,67.10
2023-04-16T17:02:51.963Z,67.30
2023-04-16T17:05:19.903Z,67.39
2023-04-16T17:07:47.407Z,67.69
2023-04-16T17:10:24.363Z,66.92
2023-04-16T17:12:51.915Z,67.81
2023-04-16T17:15:21.807Z,67.33
2023-04-16T17:17:49.644Z,67.43
2023-04-16T17:20:17.441Z,67.63
2023-04-16T17:22:44.937Z,67.24
2023-04-16T17:25:12.592Z,66.65
2023-04-16T17:27:40.103Z,67.08
2023-04-16T17:30:08.386Z,66.63
2023-04-16T17:32:36.042Z,66.50
2023-04-16T17:35:04.321Z,66.39
2023-04-16T17:37:32.369Z,66.43
2023-04-16T17:39:59.982Z,66.37
2023-04-16T17:42:27.532Z,66.62
2023-04-16T17:44:55.040Z,67.17
2023-04-16T17:47:22.594Z,66.73
2023-04-16T17:49:54.466Z,66.64
2023-04-16T17:52:22.832Z,66.36
2023-04-16T17:54:50.460Z,66.76
2023-04-16T17:57:17.983Z,65.96
2023-04-16T17:59:45.531Z,66.52
2023-04-16T18:02:13.182Z,65.97
2023-04-16T18:04:40.849Z,65.64
2023-04-16T18:07:08.405Z,65.63
2023-04-16T18:09:36.472Z,65.50
2023-04-16T18:12:04.235Z,65.23
2023-04-16T18:14:33.997Z,65.28
2023-04-16T18:17:02.562Z,65.56
2023-04-16T18:19:31.868Z,65.66
2023-04-16T18:21:59.363Z,65.89
2023-04-16T18:24:27.073Z,65.46
2023-04-16T18:26:55.312Z,65.81
2023-04-16T18:29:25.084Z,66.07
2023-04-16T18:31:55.106Z,66.03
2023-04-16T18:34:23.464Z,66.69
2023-04-16T18:36:51.397Z,66.40
2023-04-16T18:39:19.082Z,65.98
2023-04-16T18:41:47.761Z,65.70
2023-04-16T18:44:16.014Z,66.10
2023-04-16T18:46:43.678Z,66.45
2023-04-16T18:49:11.385Z,66.15
2023-04-16T18:51:39.203Z,65.51
2023-04-16T18:54:06.771Z,65.64
2023-04-16T18:56:34.386Z,65.83
2023-04-16T18:59:02.054Z,65.92
2023-04-16T19:01:29.740Z,65.02
2023-04-16T19:03:57.486Z,65.65
2023-04-16T19:06:25.111Z,65.12
2023-04-16T19:08:55.156Z,65.08
2023-04-16T19:11:22.749Z,65.51
2023-04-16T19:13:50.340Z,65.04
2023-04-16T19:16:17.924Z,65.27
2023-04-16T19:18:45.537Z,65.73
2023-04-16T19:21:13.047Z,65.16
2023-04-16T19:23:40.538Z,65.46
2023-04-16T19:26:08.098Z,65.18
2023-04-16T19:28:35.621Z,65.95
2023-04-16T19:31:03.115Z,65.34
2023-04-16T19:33:31.230Z,65.46
2023-04-16T19:35:58.803Z,65.38
2023-04-16T19:38:26.403Z,65.02
2023-04-16T19:40:54.043Z,64.80
2023-04-16T19:43:22.074Z,65.37
2023-04-16T19:45:53.441Z,65.20
2023-04-16T19:48:21.438Z,65.43
2023-04-16T19:50:49.184Z,64.91
2023-04-16T19:53:19.194Z,64.72
2023-04-16T19:55:46.680Z,64.78
2023-04-16T19:58:14.524Z,64.52
2023-04-16T20:00:42.201Z,64.36
2023-04-16T20:03:09.941Z,64.37
2023-04-16T20:05:37.437Z,64.29
2023-04-16T20:08:05.362Z,64.10
2023-04-16T20:10:32.932Z,64.20
2023-04-16T20:13:00.714Z,64.33
2023-04-16T20:15:28.490Z,64.51
2023-04-16T20:17:56.352Z,64.48
2023-04-16T20:20:23.954Z,64.20
2023-04-16T20:22:51.520Z,64.03
2023-04-16T20:25:19.287Z,64.61
2023-04-16T20:27:46.937Z,64.68
2023-04-16T20:30:14.697Z,64.35
2023-04-16T20:32:42.233Z,64.19
2023-04-16T20:35:11.398Z,63.82
2023-04-16T20:37:41.836Z,64.00
2023-04-16T20:40:10.569Z,63.63
2023-04-16T20:42:38.093Z,63.46
2023-04-16T20:45:07.138Z,63.46
2023-04-16T20:47:34.924Z,63.45
2023-04-16T20:50:03.634Z,63.36
2023-04-16T20:52:31.112Z,63.73
2023-04-16T20:54:58.628Z,63.97
2023-04-16T20:57:27.958Z,63.78
2023-04-16T20:59:56.333Z,63.69
2023-04-16T21:02:24.205Z,63.86
2023-04-16T21:04:52.045Z,63.91
2023-04-16T21:07:19.666Z,64.00
2023-04-16T21:09:47.191Z,64.09
2023-04-16T21:12:14.666Z,64.03
2023-04-16T21:14:42.200Z,63.92
2023-04-16T21:17:09.672Z,63.82
2023-04-16T21:19:37.214Z,64.12
2023-04-16T21:22:04.821Z,63.81
2023-04-16T21:24:32.514Z,63.77
2023-04-16T21:27:00.041Z,64.12
2023-04-16T21:29:27.905Z,64.06
2023-04-16T21:31:55.903Z,63.85
2023-04-16T21:34:23.519Z,64.18
2023-04-16T21:36:51.034Z,64.16
2023-04-16T21:39:19.754Z,64.33
2023-04-16T21:41:47.709Z,64.12
2023-04-16T21:44:15.439Z,63.81
2023-04-16T21:46:42.929Z,63.97
2023-04-16T21:49:10.648Z,63.79
2023-04-16T21:51:40.072Z,63.81
2023-04-16T21:54:08.333Z,63.57
2023-04-16T21:56:35.890Z,63.40
2023-04-16T21:59:03.562Z,63.27
2023-04-16T22:01:31.100Z,63.24
2023-04-16T22:03:58.835Z,63.37
2023-04-16T22:06:27.088Z,63.46
2023-04-16T22:08:54.612Z,63.38
2023-04-16T22:11:22.492Z,63.65
2023-04-16T22:13:50.137Z,63.46
2023-04-16T22:16:17.774Z,63.82
2023-04-16T22:18:46.253Z,64.12
2023-04-16T22:21:13.820Z,64.38
2023-04-16T22:23:41.332Z,63.84
2023-04-16T22:26:09.079Z,63.88
2023-04-16T22:28:36.616Z,63.54
2023-04-16T22:31:04.320Z,63.79
2023-04-16T22:33:31.834Z,63.60
2023-04-16T22:36:00.132Z,63.57
2023-04-16T22:38:27.730Z,64.11
2023-04-16T22:40:55.249Z,63.74
2023-04-16T22:43:22.902Z,63.54
2023-04-16T22:45:50.408Z,64.35
2023-04-16T22:48:18.635Z,64.09
2023-04-16T22:50:48.423Z,64.52
2023-04-16T22:53:16.118Z,64.33
2023-04-16T22:55:43.688Z,63.98
2023-04-16T22:58:11.227Z,63.89
2023-04-16T23:00:39.186Z,64.08
2023-04-16T23:03:07.156Z,63.66
2023-04-16T23:05:34.934Z,63.44
2023-04-16T23:08:02.520Z,63.56
2023-04-16T23:10:30.111Z,63.77
2023-04-16T23:12:57.687Z,63.50
2023-04-16T23:15:25.259Z,63.57
2023-04-16T23:17:52.850Z,63.23
2023-04-16T23:20:20.397Z,63.12
2023-04-16T23:22:48.022Z,63.66
2023-04-16T23:25:15.816Z,63.22
2023-04-16T23:27:43.319Z,63.40
2023-04-16T23:30:11.384Z,63.45
2023-04-16T23:32:39.065Z,63.21
2023-04-16T23:35:07.357Z,63.32
2023-04-16T23:37:34.859Z,63.25
2023-04-16T23:40:03.877Z,63.26
2023-04-16T23:42:31.366Z,63.48
2023-04-16T23:44:58.990Z,63.56
2023-04-16T23:47:26.522Z,63.25
2023-04-16T23:49:54.054Z,63.53
2023-04-16T23:52:21.544Z,63.26
2023-04-16T23:54:49.114Z,63.43
2023-04-16T23:57:16.655Z,63.35
2023-04-16T23:59:44.174Z,63.62
